Portada
METAR-TAF:

METAR-TAF

Aeroports :

Türkmenbaşy, Turkmenistan

latitud: 40-03-48N, longitud: 053-00-26E, altitud: 86 m

Observació

L'informe es va fer fa 45 minuts, a les 03:00 UTC
Vent 10 kt del Est
Temperatura 30°C
Humitat 12%
Pressió 1010 hPa
Visibilitat 10 km o més
sense núvols per sota de 1500 mi sense presència de cumulonimbus.

METAR: UTAK 050300Z 08010KT CAVOK 30/M02 Q1010 R16R/CLRD70 NOSIG

Hora: 08:45 (03:45 UTC)

Pronòstic

L'informe es va fer fa 5 hores i 15 minuts, a les 22:30 UTC
Pronòstic vàlid del 05 a les 00 UTC al 05 a les 24 UTC
Vent 14 kt del Est
Visibilitat 10 km o més
sense núvols per sota de 1500 mi sense presència de cumulonimbus.
Temporalment
l' 05 a les 00 UTC al 05 a les 05 UTC
Vent 12 kt del Est/Nord-Est
Núvols disperses a una alçada de 5000 ft

TAF: UTAK 042230Z 0500/0524 09014KT CAVOK TEMPO 0500/0505 06012KT SCT050

Observacions i pronòstics meteorològics de més de 4000 aeroports (METAR i TAF).

Les estacions disponibles són els punts grocs i vermells al mapa.

Posi el ratolí al punt desitjat per veure el nom de l'estació.

Feu clic per veure les observacions i els pronòstics meteorològics.

Per canviar el mapa: feu clic els botons verds amb una creu de color negre per apropar; al botó verd amb un guió per allunyar la imatge; o en les fletxes verdes per a mapes adjacents.


METAR-TAF: